| time (UTC) | temp C | wind direction | speed KPH | gust KPH | rain 1hr cm | rain 24hr cm | rain mn cm | humidity % | barometer mb |
| 20260906231535 | 17 | 317 | 6.4 | 16.1 | 0.00 | 0.97 | 0.84 | 74 | 1013.8 |
| 20260906230035 | 17 | 329 | 9.7 | 16.1 | 0.00 | 0.97 | 0.84 | 75 | 1014.0 |
| 20260906224536 | 17 | 328 | 9.7 | 17.7 | 0.00 | 0.97 | 0.84 | 75 | 1014.2 |
| 20260906223037 | 16 | 282 | 9.7 | 17.7 | 0.00 | 0.97 | 0.84 | 77 | 1014.4 |
| 20260906221536 | 16 | 263 | 9.7 | 16.1 | 0.00 | 0.97 | 0.84 | 78 | 1014.6 |
| 20260906220035 | 16 | 260 | 9.7 | 17.7 | 0.00 | 0.97 | 0.84 | 79 | 1014.7 |
| 20260906214539 | 16 | 252 | 9.7 | 17.7 | 0.00 | 0.97 | 0.84 | 78 | 1014.7 |
| 20260906213039 | 16 | 258 | 9.7 | 17.7 | 0.00 | 0.97 | 0.84 | 79 | 1014.7 |
| 20260906211537 | 16 | 223 | 8.0 | 14.5 | 0.00 | 0.97 | 0.84 | 80 | 1014.7 |
| 20260906210033 | 16 | 218 | 8.0 | 14.5 | 0.00 | 0.97 | 0.84 | 81 | 1014.4 |
| 20260906204535 | 16 | 217 | 6.4 | 12.9 | 0.00 | 0.97 | 0.84 | 82 | 1014.5 |
| 20260906203037 | 16 | 215 | 6.4 | 12.9 | 0.00 | 0.97 | 0.84 | 83 | 1014.5 |
| 20260906201534 | 16 | 207 | 4.8 | 11.3 | 0.00 | 0.97 | 0.84 | 82 | 1014.5 |
| 20260906200036 | 16 | 210 | 6.4 | 11.3 | 0.00 | 0.97 | 0.84 | 82 | 1014.5 |
| 20260906194535 | 16 | 184 | 6.4 | 12.9 | 0.00 | 0.97 | 0.84 | 82 | 1014.4 |
| 20260906193036 | 16 | 183 | 8.0 | 14.5 | 0.00 | 0.97 | 0.84 | 82 | 1014.6 |
| 20260906191535 | 16 | 211 | 4.8 | 9.7 | 0.00 | 0.97 | 0.84 | 82 | 1014.9 |
| 20260906190036 | 16 | 0 | 1.6 | 11.3 | 0.00 | 0.97 | 0.84 | 82 | 1015.0 |
| 20260906184537 | 16 | 107 | 8.0 | 16.1 | 0.00 | 0.97 | 0.84 | 83 | 1015.0 |
| 20260906183036 | 16 | 50 | 9.7 | 22.5 | 0.00 | 0.97 | 0.84 | 83 | 1014.9 |
| 20260906181538 | 16 | 38 | 19.3 | 25.7 | 0.00 | 0.97 | 0.84 | 86 | 1014.5 |
| 20260906180038 | 15 | 18 | 19.3 | 27.4 | 0.00 | 0.97 | 0.84 | 90 | 1015.1 |
| 20260906174539 | 14 | 19 | 20.9 | 30.6 | 0.00 | 0.97 | 0.84 | 91 | 1015.4 |
| 20260906173039 | 13 | 24 | 19.3 | 24.1 | 0.00 | 0.97 | 0.84 | 92 | 1016.0 |
| 20260906171538 | 13 | 46 | 24.1 | 33.8 | 0.05 | 0.97 | 0.84 | 93 | 1015.9 |
| 20260906170106 | 12 | 19 | 16.1 | 24.1 | 0.10 | 0.97 | 0.84 | 94 | 1016.3 |
| 20260906164534 | 12 | 329 | 14.5 | 20.9 | 0.15 | 0.99 | 0.84 | 94 | 1017.0 |
| 20260906163038 | 12 | 276 | 17.7 | 22.5 | 0.23 | 0.99 | 0.84 | 94 | 1017.1 |
| 20260906161536 | 12 | 298 | 9.7 | 12.9 | 0.25 | 0.94 | 0.79 | 94 | 1016.8 |
| 20260906160038 | 12 | 327 | 8.0 | 14.5 | 0.30 | 0.89 | 0.74 | 94 | 1016.7 |
| 20260906154537 | 11 | 318 | 12.9 | 20.9 | 0.33 | 0.84 | 0.69 | 94 | 1017.0 |
| 20260906153040 | 11 | 341 | 16.1 | 27.4 | 0.36 | 0.76 | 0.61 | 94 | 1017.1 |
| 20260906151537 | 11 | 336 | 19.3 | 24.1 | 0.36 | 0.66 | 0.51 | 94 | 1017.1 |
| 20260906150036 | 11 | 317 | 16.1 | 30.6 | 0.38 | 0.58 | 0.43 | 94 | 1017.4 |
| 20260906144537 | 11 | 329 | 20.9 | 30.6 | 0.28 | 0.53 | 0.33 | 94 | 1017.5 |
| 20260906143039 | 11 | 311 | 27.4 | 33.8 | 0.20 | 0.46 | 0.25 | 94 | 1017.7 |
| 20260906141538 | 11 | 305 | 30.6 | 43.5 | 0.10 | 0.36 | 0.15 | 93 | 1018.0 |
| 20260906140041 | 12 | 280 | 20.9 | 35.4 | 0.00 | 0.25 | 0.05 | 91 | 1017.8 |
| 20260906134550 | 12 | 292 | 19.3 | 27.4 | 0.00 | 0.36 | 0.05 | 90 | 1017.7 |
| 20260906133038 | 12 | 297 | 1.6 | 12.9 | 0.00 | 0.36 | 0.05 | 91 | 1016.7 |
| 20260906131536 | 12 | 228 | 3.2 | 8.0 | 0.00 | 0.36 | 0.05 | 90 | 1016.9 |
| 20260906130037 | 12 | 35 | 3.2 | 8.0 | 0.00 | 0.36 | 0.05 | 89 | 1016.8 |
| 20260906124544 | 12 | 334 | 8.0 | 17.7 | 0.00 | 0.36 | 0.05 | 89 | 1017.1 |
| 20260906123106 | 12 | 336 | 17.7 | 27.4 | 0.00 | 0.36 | 0.05 | 88 | 1017.5 |
| 20260906121540 | 12 | 339 | 16.1 | 29.0 | 0.00 | 0.36 | 0.05 | 88 | 1017.5 |
| 20260906120038 | 13 | 335 | 19.3 | 37.0 | 0.00 | 0.36 | 0.05 | 85 | 1017.2 |
| 20260906114535 | 13 | 298 | 22.5 | 32.2 | 0.00 | 0.36 | 0.05 | 87 | 1017.3 |
| 20260906113038 | 13 | 78 | 27.4 | 37.0 | 0.00 | 0.36 | 0.05 | 83 | 1016.6 |
| 20260906111536 | 13 | 84 | 22.5 | 29.0 | 0.00 | 0.36 | 0.05 | 85 | 1016.8 |
| 20260906110038 | 12 | 98 | 8.0 | 12.9 | 0.00 | 0.36 | 0.05 | 91 | 1016.8 |
| 20260906104537 | 12 | 71 | 8.0 | 12.9 | 0.00 | 0.36 | 0.05 | 91 | 1016.6 |
| 20260906103036 | 12 | 5 | 6.4 | 12.9 | 0.00 | 0.36 | 0.05 | 91 | 1017.1 |
| 20260906101535 | 12 | 360 | 9.7 | 17.7 | 0.00 | 0.36 | 0.05 | 91 | 1017.2 |
| 20260906100036 | 13 | 17 | 14.5 | 20.9 | 0.00 | 0.36 | 0.05 | 90 | 1017.1 |
| 20260906094536 | 13 | 18 | 17.7 | 25.7 | 0.00 | 0.36 | 0.05 | 91 | 1017.1 |
| 20260906093040 | 12 | 18 | 22.5 | 32.2 | 0.03 | 0.36 | 0.05 | 91 | 1017.2 |
| 20260906091545 | 12 | 9 | 27.4 | 38.6 | 0.05 | 0.36 | 0.05 | 91 | 1017.4 |
| 20260906090036 | 12 | 17 | 29.0 | 37.0 | 0.05 | 0.36 | 0.05 | 92 | 1017.4 |
| 20260906084538 | 12 | 346 | 22.5 | 30.6 | 0.05 | 0.36 | 0.05 | 92 | 1018.2 |
| 20260906083036 | 13 | 301 | 19.3 | 30.6 | 0.03 | 0.33 | 0.03 | 89 | 1018.9 |
| 20260906081539 | 13 | 349 | 24.1 | 37.0 | 0.00 | 0.30 | 0.00 | 85 | 1018.6 |
| 20260906080039 | 13 | 246 | 27.4 | 53.1 | 0.00 | 0.30 | 0.00 | 90 | 1019.4 |
| 20260906074545 | 13 | 360 | 22.5 | 32.2 | 0.00 | 0.30 | 0.00 | 90 | 1017.7 |
| 20260906073036 | 12 | 328 | 17.7 | 24.1 | 0.00 | 0.30 | 0.00 | 90 | 1018.1 |
| 20260906071534 | 13 | 331 | 20.9 | 33.8 | 0.00 | 0.30 | 0.00 | 89 | 1018.3 |
| 20260906070039 | 13 | 11 | 27.4 | 38.6 | 0.00 | 0.30 | 0.00 | 88 | 1018.0 |
| 20260906064536 | 12 | 9 | 25.7 | 33.8 | 0.00 | 0.30 | 0.00 | 89 | 1018.1 |
| 20260906063038 | 12 | 349 | 22.5 | 37.0 | 0.00 | 0.30 | 0.00 | 89 | 1018.9 |
| 20260906061539 | 12 | 340 | 27.4 | 33.8 | 0.00 | 0.30 | 0.00 | 90 | 1018.9 |
| 20260906060036 | 13 | 340 | 33.8 | 43.5 | 0.00 | 0.30 | 0.00 | 86 | 1019.5 |
| 20260906054540 | 12 | 305 | 20.9 | 29.0 | 0.00 | 0.30 | 0.30 | 88 | 1019.3 |
| 20260906053036 | 12 | 351 | 20.9 | 32.2 | 0.03 | 0.30 | 0.30 | 89 | 1018.4 |
| 20260906051534 | 12 | 360 | 25.7 | 33.8 | 0.03 | 0.30 | 0.30 | 89 | 1018.7 |
| 20260906050049 | 12 | 346 | 25.7 | 40.2 | 0.03 | 0.30 | 0.30 | 89 | 1018.5 |
| 20260906044534 | 12 | 331 | 25.7 | 35.4 | 0.03 | 0.30 | 0.30 | 89 | 1018.5 |
| 20260906043035 | 12 | 280 | 12.9 | 25.7 | 0.05 | 0.28 | 0.28 | 88 | 1019.4 |
| 20260906041533 | 13 | 10 | 29.0 | 43.5 | 0.10 | 0.28 | 0.28 | 87 | 1017.7 |
| 20260906040040 | 13 | 9 | 32.2 | 41.8 | 0.10 | 0.28 | 0.28 | 87 | 1017.6 |
| 20260906034536 | 13 | 352 | 33.8 | 45.1 | 0.10 | 0.28 | 0.28 | 87 | 1017.8 |
| 20260906033046 | 13 | 350 | 24.1 | 35.4 | 0.05 | 0.23 | 0.23 | 87 | 1018.5 |
| 20260906031535 | 15 | 270 | 11.3 | 19.3 | 0.00 | 0.18 | 0.18 | 80 | 1019.8 |
| 20260906030034 | 15 | 340 | 16.1 | 24.1 | 0.00 | 0.18 | 0.18 | 70 | 1018.6 |
| 20260906024544 | 16 | 348 | 20.9 | 30.6 | 0.00 | 0.18 | 0.18 | 69 | 1017.0 |
| 20260906023044 | 16 | 360 | 20.9 | 33.8 | 0.00 | 0.18 | 0.18 | 70 | 1016.5 |
| 20260906021534 | 16 | 360 | 22.5 | 32.2 | 0.00 | 0.18 | 0.18 | 70 | 1016.6 |
| 20260906020037 | 16 | 360 | 20.9 | 30.6 | 0.00 | 0.18 | 0.18 | 69 | 1016.8 |
| 20260906014536 | 16 | 360 | 19.3 | 27.4 | 0.00 | 0.18 | 0.18 | 69 | 1016.8 |
| 20260906013047 | 17 | 11 | 19.3 | 29.0 | 0.00 | 0.18 | 0.18 | 68 | 1016.8 |
| 20260906011549 | 17 | 15 | 22.5 | 33.8 | 0.00 | 0.18 | 0.18 | 67 | 1016.7 |
| 20260906010041 | 17 | 17 | 24.1 | 35.4 | 0.00 | 0.18 | 0.18 | 65 | 1016.8 |
| 20260906004535 | 17 | 360 | 22.5 | 30.6 | 0.00 | 0.18 | 0.18 | 64 | 1016.7 |
| 20260906003036 | 18 | 352 | 24.1 | 30.6 | 0.00 | 0.18 | 0.18 | 62 | 1017.0 |
| 20260906001536 | 19 | 360 | 20.9 | 30.6 | 0.00 | 0.18 | 0.18 | 59 | 1017.1 |
| 20260906000049 | 20 | 360 | 25.7 | 35.4 | 0.00 | 0.18 | 0.18 | 57 | 1017.1 |
| 20260905234535 | 20 | 360 | 24.1 | 29.0 | 0.00 | 0.18 | 0.18 | 56 | 1017.3 |
| 20260905233039 | 20 | 333 | 19.3 | 30.6 | 0.00 | 0.18 | 0.18 | 56 | 1017.4 |